New Hebron, Illinois
Current Conditions -  °F | °C
As of 4:55 PM on Thursday 18 Dec 2014 (Local Time) from KRSV Reporting Station
Overcast Overcast  
Wind Chill: 30°   Ceiling: 5500
Heat Index: 30°   Visibility: 10mi
Dew Point: 24°   Wind: 3mph
Humidity: 76%   Direction: 360°N
Pressure: 30.26"   Gusts: NA
Location:  39.0131°N, 87.7657°W
Report Text: KRSV 182255Z AUTO 36003KT 10SM BKN055 OVC095 M01/M05 A3026 RMK AO2 T10091046
Loading
Personal Weather Stations






























Interactive Weather Map New forecast layout! Learn more

10-Day Weather Forecast

Advertisements
Track Severe Weather on mobile